createdAt,value
2023-03-16T00:00:05.802Z,0.79
2023-03-16T00:00:15.937Z,0.57
2023-03-16T00:00:26.157Z,0.67
2023-03-16T00:00:35.830Z,0.75
2023-03-16T00:00:45.865Z,0.83
2023-03-16T00:00:55.771Z,0.65
2023-03-16T00:01:05.816Z,0.97
2023-03-16T00:01:15.852Z,0.76
2023-03-16T00:01:25.772Z,0.68
2023-03-16T00:01:35.859Z,0.85
2023-03-16T00:01:45.829Z,0.76
2023-03-16T00:01:55.927Z,0.71
2023-03-16T00:02:05.819Z,0.97
2023-03-16T00:02:15.875Z,0.67
2023-03-16T00:02:25.885Z,0.68
2023-03-16T00:02:35.757Z,0.68
2023-03-16T00:02:45.834Z,0.89
2023-03-16T00:02:55.835Z,0.67
2023-03-16T00:03:05.869Z,0.75
2023-03-16T00:03:15.927Z,0.76
2023-03-16T00:03:25.862Z,0.67
2023-03-16T00:03:35.856Z,0.82
2023-03-16T00:03:45.760Z,0.86
2023-03-16T00:03:55.783Z,0.70
2023-03-16T00:04:05.823Z,0.75
2023-03-16T00:04:15.751Z,0.80
2023-03-16T00:04:25.763Z,0.78
2023-03-16T00:04:35.816Z,0.83
2023-03-16T00:04:45.761Z,0.80
2023-03-16T00:04:55.762Z,0.80
2023-03-16T00:05:05.802Z,0.83
2023-03-16T00:05:15.762Z,0.79
2023-03-16T00:05:25.789Z,0.82
2023-03-16T00:05:35.762Z,0.68
2023-03-16T00:05:46.280Z,0.88
2023-03-16T00:05:55.748Z,0.72
2023-03-16T00:06:05.760Z,0.75
2023-03-16T00:06:15.772Z,0.76
2023-03-16T00:06:25.923Z,0.70
2023-03-16T00:06:35.739Z,0.85
2023-03-16T00:06:45.780Z,0.76
2023-03-16T00:06:55.820Z,0.71
2023-03-16T00:07:05.746Z,0.96
2023-03-16T00:07:15.782Z,0.79
2023-03-16T00:07:25.822Z,0.83
2023-03-16T00:07:35.753Z,0.76
2023-03-16T00:07:45.779Z,0.83
2023-03-16T00:07:55.853Z,0.89
2023-03-16T00:08:05.753Z,0.65
2023-03-16T00:08:15.766Z,0.67
2023-03-16T00:08:25.931Z,0.88
2023-03-16T00:08:35.761Z,0.90
2023-03-16T00:08:45.793Z,0.79
2023-03-16T00:08:55.766Z,0.70
2023-03-16T00:09:05.761Z,0.79
2023-03-16T00:09:15.809Z,0.71
2023-03-16T00:09:25.832Z,0.64
2023-03-16T00:09:35.761Z,0.79
2023-03-16T00:09:45.755Z,0.72
2023-03-16T00:09:55.756Z,0.76
2023-03-16T00:10:05.769Z,0.64
2023-03-16T00:10:15.810Z,0.62
2023-03-16T00:10:25.981Z,0.78
2023-03-16T00:10:35.774Z,0.89
2023-03-16T00:10:45.809Z,0.78
2023-03-16T00:10:55.735Z,0.83
2023-03-16T00:11:05.770Z,0.85
2023-03-16T00:11:16.319Z,0.79
2023-03-16T00:11:25.740Z,0.85
2023-03-16T00:11:35.777Z,0.86
2023-03-16T00:11:45.814Z,0.97
2023-03-16T00:11:55.754Z,0.89
2023-03-16T00:12:05.802Z,0.76
2023-03-16T00:12:15.852Z,0.76
2023-03-16T00:12:25.741Z,0.61
2023-03-16T00:12:35.749Z,0.75
2023-03-16T00:12:45.730Z,0.98
2023-03-16T00:12:55.749Z,0.78
2023-03-16T00:13:05.793Z,0.86
2023-03-16T00:13:15.731Z,0.92
2023-03-16T00:13:25.753Z,0.83
2023-03-16T00:13:35.797Z,0.96
2023-03-16T00:13:45.727Z,0.79
2023-03-16T00:13:55.810Z,0.76
2023-03-16T00:14:05.796Z,0.85
2023-03-16T00:14:15.722Z,0.76
2023-03-16T00:14:25.728Z,0.83
2023-03-16T00:14:36.298Z,0.75
2023-03-16T00:14:45.717Z,0.70
2023-03-16T00:14:55.718Z,0.65
2023-03-16T00:15:05.787Z,0.67
2023-03-16T00:15:15.733Z,0.76
2023-03-16T00:15:25.737Z,0.90
2023-03-16T00:15:35.708Z,0.80
2023-03-16T00:15:45.741Z,0.83
2023-03-16T00:15:55.814Z,0.96
2023-03-16T00:16:05.845Z,0.85
2023-03-16T00:16:15.843Z,0.83
2023-03-16T00:16:25.768Z,0.62
2023-03-16T00:16:35.738Z,0.72
2023-03-16T00:16:45.779Z,0.71
2023-03-16T00:16:55.772Z,0.82
2023-03-16T00:17:06.297Z,0.67
2023-03-16T00:17:15.839Z,0.70
2023-03-16T00:17:25.700Z,0.80
2023-03-16T00:17:35.710Z,0.80
2023-03-16T00:17:45.715Z,0.86
2023-03-16T00:17:55.785Z,0.79
2023-03-16T00:18:05.722Z,0.88
2023-03-16T00:18:15.752Z,0.75
2023-03-16T00:18:25.704Z,0.79
2023-03-16T00:18:36.328Z,0.67
2023-03-16T00:18:45.781Z,0.67
2023-03-16T00:18:55.703Z,0.76
2023-03-16T00:19:05.746Z,0.70
2023-03-16T00:19:15.744Z,0.85
2023-03-16T00:19:25.703Z,0.75
2023-03-16T00:19:35.709Z,0.71
2023-03-16T00:19:45.782Z,0.75
2023-03-16T00:19:55.802Z,0.80
2023-03-16T00:20:05.927Z,0.68
2023-03-16T00:20:15.754Z,0.79
2023-03-16T00:20:26.590Z,0.70
2023-03-16T00:20:35.709Z,0.88
2023-03-16T00:20:45.729Z,0.82
2023-03-16T00:20:55.712Z,0.52
2023-03-16T00:21:05.748Z,0.75
2023-03-16T00:21:15.686Z,0.83
2023-03-16T00:21:25.710Z,0.52
2023-03-16T00:21:35.775Z,0.75
2023-03-16T00:21:45.683Z,0.85
2023-03-16T00:21:55.706Z,0.88
2023-03-16T00:22:05.683Z,0.70
2023-03-16T00:22:15.697Z,0.96
2023-03-16T00:22:25.722Z,0.78
2023-03-16T00:22:35.727Z,0.83
2023-03-16T00:22:46.319Z,0.60
2023-03-16T00:22:55.704Z,0.83
2023-03-16T00:23:05.728Z,0.83
2023-03-16T00:23:15.681Z,0.78
2023-03-16T00:23:25.691Z,0.92
2023-03-16T00:23:35.712Z,0.76
2023-03-16T00:23:45.683Z,0.78
2023-03-16T00:23:55.733Z,0.83
2023-03-16T00:24:05.677Z,0.67
2023-03-16T00:24:15.688Z,0.68
2023-03-16T00:24:25.706Z,0.70
2023-03-16T00:24:35.686Z,0.68
2023-03-16T00:24:45.683Z,0.75
2023-03-16T00:24:55.723Z,0.70
2023-03-16T00:25:05.675Z,0.86
2023-03-16T00:25:15.678Z,0.76
2023-03-16T00:25:25.760Z,0.82
2023-03-16T00:25:35.778Z,0.62
2023-03-16T00:25:45.699Z,0.72
2023-03-16T00:25:55.741Z,0.53
2023-03-16T00:26:05.671Z,0.83
2023-03-16T00:26:15.708Z,0.53
2023-03-16T00:26:25.738Z,0.72
2023-03-16T00:26:36.297Z,0.60
2023-03-16T00:26:45.695Z,0.85
2023-03-16T00:26:55.683Z,0.75
2023-03-16T00:27:05.694Z,0.71
2023-03-16T00:27:15.733Z,0.83
2023-03-16T00:27:25.659Z,0.78
2023-03-16T00:27:35.682Z,0.65
2023-03-16T00:27:45.705Z,0.86
2023-03-16T00:27:55.673Z,0.85
2023-03-16T00:28:05.697Z,0.75
2023-03-16T00:28:15.715Z,0.85
2023-03-16T00:28:25.663Z,0.70
2023-03-16T00:28:35.691Z,0.72
2023-03-16T00:28:45.726Z,0.51
2023-03-16T00:28:55.655Z,0.72
2023-03-16T00:29:05.780Z,0.75
2023-03-16T00:29:15.707Z,0.58
2023-03-16T00:29:25.651Z,0.58
2023-03-16T00:29:35.679Z,0.78
2023-03-16T00:29:45.720Z,0.79
2023-03-16T00:29:56.177Z,0.62
2023-03-16T00:30:05.662Z,0.70
2023-03-16T00:30:15.644Z,0.62
2023-03-16T00:30:26.087Z,0.86
2023-03-16T00:30:35.688Z,0.67
2023-03-16T00:30:45.707Z,0.70
2023-03-16T00:30:55.702Z,0.80
2023-03-16T00:31:05.665Z,0.67
2023-03-16T00:31:15.690Z,0.60
2023-03-16T00:31:25.694Z,0.51
2023-03-16T00:31:35.708Z,0.70
2023-03-16T00:31:46.250Z,0.72
2023-03-16T00:31:55.736Z,0.64
2023-03-16T00:32:05.783Z,0.72
2023-03-16T00:32:16.268Z,0.80
2023-03-16T00:32:25.689Z,0.67
2023-03-16T00:32:35.694Z,0.68
2023-03-16T00:32:45.780Z,0.48
2023-03-16T00:32:55.804Z,0.60
2023-03-16T00:33:05.764Z,0.48
2023-03-16T00:33:15.653Z,0.76
2023-03-16T00:33:25.634Z,0.60
2023-03-16T00:33:35.641Z,0.61
2023-03-16T00:33:45.678Z,0.64
2023-03-16T00:33:56.284Z,0.80
2023-03-16T00:34:05.630Z,0.62
2023-03-16T00:34:15.724Z,0.76
2023-03-16T00:34:25.671Z,0.76
2023-03-16T00:34:35.639Z,0.79
2023-03-16T00:34:46.292Z,0.48
2023-03-16T00:34:55.760Z,0.78
2023-03-16T00:35:08.192Z,0.60
2023-03-16T00:35:15.646Z,0.72
2023-03-16T00:35:26.292Z,0.85
2023-03-16T00:35:35.670Z,0.65
2023-03-16T00:35:45.652Z,0.52
2023-03-16T00:35:55.633Z,0.61
2023-03-16T00:36:06.321Z,0.79
2023-03-16T00:36:15.619Z,0.60
2023-03-16T00:36:25.622Z,0.49
2023-03-16T00:36:35.647Z,0.49
2023-03-16T00:36:45.657Z,0.58
2023-03-16T00:36:55.691Z,0.64
2023-03-16T00:37:05.800Z,0.58
2023-03-16T00:37:15.683Z,0.45
2023-03-16T00:37:25.711Z,0.70
2023-03-16T00:37:35.772Z,0.60
2023-03-16T00:37:45.664Z,0.62
2023-03-16T00:37:55.628Z,0.78
2023-03-16T00:38:05.626Z,0.68
2023-03-16T00:38:15.630Z,0.53
2023-03-16T00:38:26.372Z,0.80
2023-03-16T00:38:35.630Z,0.72
2023-03-16T00:38:46.284Z,0.52
2023-03-16T00:38:55.613Z,0.65
2023-03-16T00:39:05.735Z,0.67
2023-03-16T00:39:15.611Z,0.58
2023-03-16T00:39:25.727Z,0.53
2023-03-16T00:39:35.647Z,0.51
2023-03-16T00:39:45.606Z,0.51
2023-03-16T00:39:55.628Z,0.60
2023-03-16T00:40:06.282Z,0.70
2023-03-16T00:40:15.610Z,0.72
2023-03-16T00:40:26.221Z,0.64
2023-03-16T00:40:35.646Z,0.45
2023-03-16T00:40:45.613Z,0.53
2023-03-16T00:40:55.634Z,0.75
2023-03-16T00:41:05.669Z,0.45
2023-03-16T00:41:15.615Z,0.70
2023-03-16T00:41:25.612Z,0.62
2023-03-16T00:41:35.645Z,0.65
2023-03-16T00:41:45.594Z,0.71
2023-03-16T00:41:55.632Z,0.62
2023-03-16T00:42:05.623Z,0.57
2023-03-16T00:42:15.602Z,0.53
2023-03-16T00:42:25.594Z,0.52
2023-03-16T00:42:35.592Z,0.70
2023-03-16T00:42:45.612Z,0.72
2023-03-16T00:42:55.696Z,0.51
2023-03-16T00:43:05.632Z,0.53
2023-03-16T00:43:15.739Z,0.65
2023-03-16T00:43:25.625Z,0.57
2023-03-16T00:43:35.674Z,0.61
2023-03-16T00:43:45.641Z,0.61
2023-03-16T00:43:55.600Z,0.71
2023-03-16T00:44:05.641Z,0.53
2023-03-16T00:44:16.373Z,0.60
2023-03-16T00:44:25.606Z,0.53
2023-03-16T00:44:35.782Z,0.57
2023-03-16T00:44:45.616Z,0.64
2023-03-16T00:44:55.647Z,0.71
2023-03-16T00:45:05.620Z,0.67
2023-03-16T00:45:15.661Z,0.53
2023-03-16T00:45:25.640Z,0.71
2023-03-16T00:45:35.636Z,0.65
2023-03-16T00:45:45.657Z,0.53
2023-03-16T00:45:55.603Z,0.64
2023-03-16T00:46:05.808Z,0.60
2023-03-16T00:46:15.739Z,0.60
2023-03-16T00:46:25.575Z,0.75
2023-03-16T00:46:35.614Z,0.65
2023-03-16T00:46:45.634Z,0.57
2023-03-16T00:46:55.578Z,0.64
2023-03-16T00:47:05.611Z,0.70
2023-03-16T00:47:15.621Z,0.67
2023-03-16T00:47:25.592Z,0.61
2023-03-16T00:47:35.616Z,0.88
2023-03-16T00:47:45.606Z,0.57
2023-03-16T00:47:55.585Z,0.71
2023-03-16T00:48:05.561Z,0.52
2023-03-16T00:48:15.648Z,0.52
2023-03-16T00:48:25.600Z,0.48
2023-03-16T00:48:35.636Z,0.53
2023-03-16T00:48:45.673Z,0.76
2023-03-16T00:48:55.589Z,0.65
2023-03-16T00:49:05.618Z,0.62
2023-03-16T00:49:15.573Z,0.71
2023-03-16T00:49:25.677Z,0.70
2023-03-16T00:49:35.579Z,0.78
2023-03-16T00:49:45.654Z,0.68
2023-03-16T00:49:55.592Z,0.76
2023-03-16T00:50:05.658Z,0.68
2023-03-16T00:50:15.569Z,0.57
2023-03-16T00:50:25.973Z,0.46
2023-03-16T00:50:35.602Z,0.83
2023-03-16T00:50:45.580Z,0.45
2023-03-16T00:50:55.694Z,0.70
2023-03-16T00:51:05.602Z,0.53
2023-03-16T00:51:15.587Z,0.58
2023-03-16T00:51:25.599Z,0.67
2023-03-16T00:51:35.666Z,0.57
2023-03-16T00:51:45.580Z,0.52
2023-03-16T00:51:55.581Z,0.79
2023-03-16T00:52:05.552Z,0.67
2023-03-16T00:52:15.590Z,0.49
2023-03-16T00:52:25.595Z,0.52
2023-03-16T00:52:35.567Z,0.71
2023-03-16T00:52:45.559Z,0.53
2023-03-16T00:52:55.565Z,0.65
2023-03-16T00:53:05.560Z,0.58
2023-03-16T00:53:15.572Z,0.75
2023-03-16T00:53:25.594Z,0.70
2023-03-16T00:53:35.627Z,0.70
2023-03-16T00:53:45.589Z,0.53
2023-03-16T00:53:56.287Z,0.70
2023-03-16T00:54:05.677Z,0.52
2023-03-16T00:54:15.566Z,0.65
2023-03-16T00:54:25.608Z,0.60
2023-03-16T00:54:35.562Z,0.72
2023-03-16T00:54:45.581Z,0.61
2023-03-16T00:54:55.626Z,0.67
2023-03-16T00:55:06.302Z,0.62
2023-03-16T00:55:15.554Z,0.70
2023-03-16T00:55:25.540Z,0.65
2023-03-16T00:55:36.280Z,0.71
2023-03-16T00:55:45.543Z,0.53
2023-03-16T00:55:55.566Z,0.43
2023-03-16T00:56:05.544Z,0.68
2023-03-16T00:56:15.552Z,0.67
2023-03-16T00:56:25.544Z,0.61
2023-03-16T00:56:35.552Z,0.48
2023-03-16T00:56:45.554Z,0.53
2023-03-16T00:56:55.547Z,0.58
2023-03-16T00:57:05.556Z,0.65
2023-03-16T00:57:15.561Z,0.68
2023-03-16T00:57:25.616Z,0.60
2023-03-16T00:57:35.560Z,0.64
2023-03-16T00:57:45.591Z,0.58
2023-03-16T00:57:55.545Z,0.65
2023-03-16T00:58:05.535Z,0.49
2023-03-16T00:58:15.532Z,0.57
2023-03-16T00:58:25.543Z,0.65
2023-03-16T00:58:35.534Z,0.53
2023-03-16T00:58:45.540Z,0.60
2023-03-16T00:58:55.545Z,0.71
2023-03-16T00:59:05.533Z,0.62
2023-03-16T00:59:15.628Z,0.58
2023-03-16T00:59:25.550Z,0.57
2023-03-16T00:59:35.524Z,0.64
2023-03-16T00:59:45.609Z,0.67
2023-03-16T00:59:56.317Z,0.70
2023-03-16T01:00:05.646Z,0.62
2023-03-16T01:00:15.635Z,0.60
2023-03-16T01:00:26.023Z,0.53
2023-03-16T01:00:35.551Z,0.78
2023-03-16T01:00:45.528Z,0.85
2023-03-16T01:00:56.302Z,0.60
2023-03-16T01:01:05.618Z,0.70
2023-03-16T01:01:15.663Z,0.64
2023-03-16T01:01:25.563Z,0.49
2023-03-16T01:01:35.544Z,0.64
2023-03-16T01:01:45.556Z,0.65
2023-03-16T01:01:55.568Z,0.70
2023-03-16T01:02:05.525Z,0.64
2023-03-16T01:02:15.525Z,0.57
2023-03-16T01:02:25.563Z,0.72
2023-03-16T01:02:35.514Z,0.68
2023-03-16T01:02:45.649Z,0.46
2023-03-16T01:02:55.639Z,0.49
2023-03-16T01:03:05.623Z,0.75
2023-03-16T01:03:15.556Z,0.58
2023-03-16T01:03:25.588Z,0.62
2023-03-16T01:03:35.645Z,0.53
2023-03-16T01:03:45.550Z,0.68
2023-03-16T01:03:55.527Z,0.57
2023-03-16T01:04:05.666Z,0.65
2023-03-16T01:04:15.556Z,0.48
2023-03-16T01:04:25.596Z,0.57
2023-03-16T01:04:35.536Z,0.70
2023-03-16T01:04:45.511Z,0.52
2023-03-16T01:04:55.511Z,0.52
2023-03-16T01:05:05.516Z,0.46
2023-03-16T01:05:15.580Z,0.68
2023-03-16T01:05:25.505Z,0.45
2023-03-16T01:05:35.517Z,0.70
2023-03-16T01:05:45.668Z,0.67
2023-03-16T01:05:55.507Z,0.60
2023-03-16T01:06:05.546Z,0.57
2023-03-16T01:06:15.497Z,0.48
2023-03-16T01:06:25.505Z,0.60
2023-03-16T01:06:35.537Z,0.48
2023-03-16T01:06:45.516Z,0.53
2023-03-16T01:06:55.510Z,0.48
2023-03-16T01:07:05.522Z,0.46
2023-03-16T01:07:15.532Z,0.51
2023-03-16T01:07:25.509Z,0.46
2023-03-16T01:07:35.501Z,0.48
2023-03-16T01:07:45.495Z,0.49
2023-03-16T01:07:55.507Z,0.46
2023-03-16T01:08:05.534Z,0.64
2023-03-16T01:08:15.495Z,0.45
2023-03-16T01:08:25.502Z,0.38
2023-03-16T01:08:35.531Z,0.25
2023-03-16T01:08:45.528Z,0.36
2023-03-16T01:08:55.517Z,0.43
2023-03-16T01:09:05.514Z,0.28
2023-03-16T01:09:15.490Z,0.34
2023-03-16T01:09:25.511Z,0.34
2023-03-16T01:09:35.639Z,0.28
2023-03-16T01:09:46.340Z,0.30
2023-03-16T01:09:55.526Z,0.30
2023-03-16T01:10:05.549Z,0.41
2023-03-16T01:10:16.296Z,0.18
2023-03-16T01:10:26.014Z,0.41
2023-03-16T01:10:35.535Z,0.34
2023-03-16T01:10:45.489Z,0.36
2023-03-16T01:10:56.273Z,0.25
2023-03-16T01:11:05.491Z,0.34
2023-03-16T01:11:15.492Z,0.25
2023-03-16T01:11:25.522Z,0.25
2023-03-16T01:11:35.579Z,0.41
2023-03-16T01:11:46.278Z,0.38
2023-03-16T01:11:55.522Z,0.33
2023-03-16T01:12:05.513Z,0.36
2023-03-16T01:12:15.498Z,0.10
2023-03-16T01:12:25.542Z,0.21
2023-03-16T01:12:35.480Z,0.34
2023-03-16T01:12:45.553Z,0.33
2023-03-16T01:12:55.523Z,0.25
2023-03-16T01:13:05.508Z,0.36
2023-03-16T01:13:15.503Z,0.42
2023-03-16T01:13:25.534Z,0.24
2023-03-16T01:13:35.470Z,0.23
2023-03-16T01:13:45.488Z,0.21
2023-03-16T01:13:55.504Z,0.21
2023-03-16T01:14:05.494Z,0.25
2023-03-16T01:14:15.506Z,0.43
2023-03-16T01:14:26.296Z,0.28
2023-03-16T01:14:35.494Z,0.23
2023-03-16T01:14:45.500Z,0.38
2023-03-16T01:14:55.466Z,0.24
2023-03-16T01:15:05.480Z,0.31
2023-03-16T01:15:15.476Z,0.27
2023-03-16T01:15:25.476Z,0.33
2023-03-16T01:15:35.513Z,0.20
2023-03-16T01:15:45.536Z,0.30
2023-03-16T01:15:55.477Z,0.21
2023-03-16T01:16:05.487Z,0.30
2023-03-16T01:16:15.605Z,0.28
2023-03-16T01:16:25.514Z,0.34
2023-03-16T01:16:35.638Z,0.18
2023-03-16T01:16:45.485Z,0.49
2023-03-16T01:16:55.471Z,0.20
2023-03-16T01:17:05.605Z,0.21
2023-03-16T01:17:15.488Z,0.28
2023-03-16T01:17:25.466Z,0.21
2023-03-16T01:17:35.518Z,0.28
2023-03-16T01:17:45.461Z,0.12
2023-03-16T01:17:55.461Z,0.30
2023-03-16T01:18:05.495Z,0.21
2023-03-16T01:18:15.507Z,0.18
2023-03-16T01:18:26.297Z,0.15
2023-03-16T01:18:35.506Z,0.25
2023-03-16T01:18:45.463Z,0.30
2023-03-16T01:18:55.477Z,0.13
2023-03-16T01:19:05.515Z,0.30
2023-03-16T01:19:15.513Z,-0.01
2023-03-16T01:19:25.476Z,0.12
2023-03-16T01:19:35.667Z,0.34
2023-03-16T01:19:45.462Z,0.13
2023-03-16T01:19:55.497Z,0.13
2023-03-16T01:20:05.521Z,0.33
2023-03-16T01:20:15.464Z,0.23
2023-03-16T01:20:25.752Z,0.06
2023-03-16T01:20:35.448Z,0.21
2023-03-16T01:20:45.867Z,0.05
2023-03-16T01:20:55.613Z,-0.05
2023-03-16T01:21:05.445Z,0.21
2023-03-16T01:21:15.463Z,0.16
2023-03-16T01:21:25.484Z,0.13
2023-03-16T01:21:35.443Z,0.23
2023-03-16T01:21:45.476Z,0.31
2023-03-16T01:21:55.493Z,0.16
2023-03-16T01:22:05.555Z,0.15
2023-03-16T01:22:15.472Z,0.00
2023-03-16T01:22:25.491Z,0.05
2023-03-16T01:22:35.458Z,0.06
2023-03-16T01:22:45.482Z,0.27
2023-03-16T01:22:55.434Z,0.06
2023-03-16T01:23:05.434Z,0.05
2023-03-16T01:23:15.461Z,0.05
2023-03-16T01:23:25.499Z,-0.13
2023-03-16T01:23:35.443Z,-0.04
2023-03-16T01:23:45.447Z,-0.09
2023-03-16T01:23:55.426Z,-0.11
2023-03-16T01:24:05.456Z,0.03
2023-03-16T01:24:15.457Z,-0.05
2023-03-16T01:24:25.434Z,-0.09
2023-03-16T01:24:35.448Z,0.02
2023-03-16T01:24:45.488Z,-0.05
2023-03-16T01:24:55.430Z,-0.15
2023-03-16T01:25:06.262Z,-0.12
2023-03-16T01:25:15.465Z,-0.04
2023-03-16T01:25:25.438Z,0.00
2023-03-16T01:25:35.433Z,0.03
2023-03-16T01:25:45.455Z,-0.19
2023-03-16T01:25:55.533Z,-0.11
2023-03-16T01:26:05.456Z,-0.09
2023-03-16T01:26:15.431Z,-0.22
2023-03-16T01:26:25.429Z,-0.05
2023-03-16T01:26:36.302Z,-0.13
2023-03-16T01:26:45.422Z,-0.13
2023-03-16T01:26:56.345Z,-0.08
2023-03-16T01:27:05.514Z,-0.12
2023-03-16T01:27:15.422Z,-0.31
2023-03-16T01:27:25.435Z,-0.09
2023-03-16T01:27:35.469Z,0.00
2023-03-16T01:27:45.511Z,-0.23
2023-03-16T01:27:55.441Z,-0.16
2023-03-16T01:28:05.437Z,-0.16
2023-03-16T01:28:15.426Z,-0.12
2023-03-16T01:28:26.280Z,-0.12
2023-03-16T01:28:35.481Z,-0.13
2023-03-16T01:28:45.446Z,-0.24
2023-03-16T01:28:55.438Z,-0.18
2023-03-16T01:29:05.487Z,-0.06
2023-03-16T01:29:16.301Z,-0.16
2023-03-16T01:29:25.426Z,-0.27
2023-03-16T01:29:35.552Z,-0.27
2023-03-16T01:29:45.420Z,-0.22
2023-03-16T01:29:55.406Z,-0.30
2023-03-16T01:30:05.413Z,-0.12
2023-03-16T01:30:15.429Z,-0.30
2023-03-16T01:30:25.885Z,-0.18
2023-03-16T01:30:35.445Z,-0.26
2023-03-16T01:30:45.450Z,-0.23
2023-03-16T01:30:55.538Z,-0.22
2023-03-16T01:31:06.022Z,-0.37
2023-03-16T01:31:15.571Z,-0.18
2023-03-16T01:31:25.454Z,-0.09
2023-03-16T01:31:35.424Z,-0.22
2023-03-16T01:31:45.420Z,-0.41
2023-03-16T01:31:56.288Z,-0.16
2023-03-16T01:32:05.403Z,-0.06
2023-03-16T01:32:15.470Z,0.00
2023-03-16T01:32:25.477Z,-0.08
2023-03-16T01:32:35.450Z,-0.09
2023-03-16T01:32:45.542Z,-0.27
2023-03-16T01:32:55.533Z,-0.22
2023-03-16T01:33:06.428Z,-0.27
2023-03-16T01:33:15.495Z,-0.23
2023-03-16T01:33:25.461Z,-0.33
2023-03-16T01:33:35.406Z,-0.08
2023-03-16T01:33:45.455Z,-0.27
2023-03-16T01:33:55.398Z,-0.29
2023-03-16T01:34:05.404Z,-0.33
2023-03-16T01:34:15.442Z,-0.15
2023-03-16T01:34:25.394Z,-0.23
2023-03-16T01:34:36.276Z,-0.15
2023-03-16T01:34:45.445Z,-0.41
2023-03-16T01:34:55.407Z,-0.42
2023-03-16T01:35:05.464Z,-0.30
2023-03-16T01:35:15.467Z,-0.34
2023-03-16T01:35:25.430Z,-0.24
2023-03-16T01:35:35.470Z,-0.27
2023-03-16T01:35:45.425Z,-0.37
2023-03-16T01:35:55.580Z,-0.12
2023-03-16T01:36:06.392Z,-0.29
2023-03-16T01:36:15.485Z,-0.39
2023-03-16T01:36:25.408Z,-0.29
2023-03-16T01:36:35.440Z,-0.34
2023-03-16T01:36:45.387Z,-0.30
2023-03-16T01:36:55.411Z,-0.37
2023-03-16T01:37:05.442Z,-0.23
2023-03-16T01:37:15.411Z,-0.34
2023-03-16T01:37:25.460Z,-0.41
2023-03-16T01:37:35.555Z,-0.44
2023-03-16T01:37:45.412Z,-0.48
2023-03-16T01:37:55.396Z,-0.22
2023-03-16T01:38:05.424Z,-0.36
2023-03-16T01:38:16.285Z,-0.26
2023-03-16T01:38:25.393Z,-0.44
2023-03-16T01:38:35.377Z,-0.31
2023-03-16T01:38:45.390Z,-0.33
2023-03-16T01:38:55.370Z,-0.42
2023-03-16T01:39:05.463Z,-0.30
2023-03-16T01:39:15.394Z,-0.30
2023-03-16T01:39:25.447Z,-0.39
2023-03-16T01:39:35.366Z,-0.48
2023-03-16T01:39:45.385Z,-0.36
2023-03-16T01:39:55.405Z,-0.31
2023-03-16T01:40:05.368Z,-0.50
2023-03-16T01:40:15.381Z,-0.41
2023-03-16T01:40:25.428Z,-0.36
2023-03-16T01:40:35.370Z,-0.33
2023-03-16T01:40:45.403Z,-0.50
2023-03-16T01:40:55.384Z,-0.29
2023-03-16T01:41:05.423Z,-0.33
2023-03-16T01:41:15.401Z,-0.45
2023-03-16T01:41:25.462Z,-0.34
2023-03-16T01:41:35.484Z,-0.44
2023-03-16T01:41:45.401Z,-0.27
2023-03-16T01:41:55.392Z,-0.31
2023-03-16T01:42:06.294Z,-0.48
2023-03-16T01:42:15.406Z,-0.39
2023-03-16T01:42:25.368Z,-0.33
2023-03-16T01:42:35.363Z,-0.41
2023-03-16T01:42:45.367Z,-0.41
2023-03-16T01:42:55.387Z,-0.44
2023-03-16T01:43:05.377Z,-0.45
2023-03-16T01:43:16.289Z,-0.57
2023-03-16T01:43:25.366Z,-0.50
2023-03-16T01:43:35.414Z,-0.45
2023-03-16T01:43:45.475Z,-0.34
2023-03-16T01:43:55.353Z,-0.51
2023-03-16T01:44:05.378Z,-0.55
2023-03-16T01:44:15.416Z,-0.48
2023-03-16T01:44:25.363Z,-0.48
2023-03-16T01:44:35.371Z,-0.34
2023-03-16T01:44:45.432Z,-0.31
2023-03-16T01:44:55.375Z,-0.48
2023-03-16T01:45:05.348Z,-0.42
2023-03-16T01:45:15.350Z,-0.47
2023-03-16T01:45:26.303Z,-0.34
2023-03-16T01:45:38.279Z,-0.59
2023-03-16T01:45:45.517Z,-0.47
2023-03-16T01:45:55.375Z,-0.22
2023-03-16T01:46:05.548Z,-0.39
2023-03-16T01:46:15.440Z,-0.42
2023-03-16T01:46:25.455Z,-0.36
2023-03-16T01:46:35.530Z,-0.39
2023-03-16T01:46:45.364Z,-0.29
2023-03-16T01:46:56.282Z,-0.27
2023-03-16T01:47:05.389Z,-0.33
2023-03-16T01:47:16.284Z,-0.41
2023-03-16T01:47:25.370Z,-0.19
2023-03-16T01:47:35.399Z,-0.42
2023-03-16T01:47:46.277Z,-0.29
2023-03-16T01:47:55.358Z,-0.39
2023-03-16T01:48:05.350Z,-0.39
2023-03-16T01:48:15.354Z,-0.16
2023-03-16T01:48:25.363Z,-0.31
2023-03-16T01:48:35.340Z,-0.47
2023-03-16T01:48:45.338Z,-0.45
2023-03-16T01:48:55.337Z,-0.47
2023-03-16T01:49:05.345Z,-0.24
2023-03-16T01:49:15.356Z,-0.41
2023-03-16T01:49:25.363Z,-0.45
2023-03-16T01:49:35.330Z,-0.41
2023-03-16T01:49:45.363Z,-0.33
2023-03-16T01:49:55.328Z,-0.39
2023-03-16T01:50:05.347Z,-0.33
2023-03-16T01:50:16.321Z,-0.39
2023-03-16T01:50:25.728Z,-0.37
2023-03-16T01:50:35.342Z,-0.52
2023-03-16T01:50:45.352Z,-0.44
2023-03-16T01:50:55.340Z,-0.23
2023-03-16T01:51:06.297Z,-0.31
2023-03-16T01:51:15.358Z,-0.30
2023-03-16T01:51:25.326Z,-0.41
2023-03-16T01:51:35.362Z,-0.44
2023-03-16T01:51:45.384Z,-0.27
2023-03-16T01:51:56.406Z,-0.34
2023-03-16T01:52:05.331Z,-0.55
2023-03-16T01:52:15.379Z,-0.39
2023-03-16T01:52:25.317Z,-0.54
2023-03-16T01:52:35.343Z,-0.34
2023-03-16T01:52:45.324Z,-0.37
2023-03-16T01:52:56.286Z,-0.29
2023-03-16T01:53:05.337Z,-0.48
2023-03-16T01:53:15.408Z,-0.30
2023-03-16T01:53:25.314Z,-0.44
2023-03-16T01:53:35.341Z,-0.26
2023-03-16T01:53:45.414Z,-0.22
2023-03-16T01:53:56.340Z,-0.47
2023-03-16T01:54:05.552Z,-0.39
2023-03-16T01:54:15.409Z,-0.41
2023-03-16T01:54:25.328Z,-0.27
2023-03-16T01:54:35.342Z,-0.44
2023-03-16T01:54:45.374Z,-0.34
2023-03-16T01:54:55.333Z,-0.47
2023-03-16T01:55:05.309Z,-0.37
2023-03-16T01:55:15.356Z,-0.44
2023-03-16T01:55:25.336Z,-0.48
2023-03-16T01:55:35.311Z,-0.13
2023-03-16T01:55:45.413Z,-0.19
2023-03-16T01:55:55.455Z,-0.44
2023-03-16T01:56:06.371Z,-0.31
2023-03-16T01:56:15.309Z,-0.39
2023-03-16T01:56:26.336Z,-0.33
2023-03-16T01:56:35.369Z,-0.42
2023-03-16T01:56:45.303Z,-0.45
2023-03-16T01:56:55.448Z,-0.47
2023-03-16T01:57:05.348Z,-0.41
2023-03-16T01:57:15.327Z,-0.26
2023-03-16T01:57:25.322Z,-0.47
2023-03-16T01:57:35.302Z,-0.54
2023-03-16T01:57:45.306Z,-0.52
2023-03-16T01:57:55.326Z,-0.41
2023-03-16T01:58:05.301Z,-0.29
2023-03-16T01:58:15.488Z,-0.51
2023-03-16T01:58:25.294Z,-0.51
2023-03-16T01:58:35.395Z,-0.47
2023-03-16T01:58:45.352Z,-0.39
2023-03-16T01:58:55.336Z,-0.41
2023-03-16T01:59:05.301Z,-0.45
2023-03-16T01:59:15.323Z,-0.44
2023-03-16T01:59:25.358Z,-0.36
2023-03-16T01:59:36.311Z,-0.57
2023-03-16T01:59:45.312Z,-0.52
2023-03-16T01:59:55.339Z,-0.47
2023-03-16T02:00:06.321Z,-0.51
2023-03-16T02:00:16.344Z,-0.36
2023-03-16T02:00:25.470Z,-0.50
2023-03-16T02:00:35.303Z,-0.54
2023-03-16T02:00:45.301Z,-0.47
2023-03-16T02:00:55.338Z,-0.34
2023-03-16T02:01:06.339Z,-0.52
2023-03-16T02:01:15.447Z,-0.33
2023-03-16T02:01:25.394Z,-0.54
2023-03-16T02:01:35.335Z,-0.48
2023-03-16T02:01:45.408Z,-0.45
2023-03-16T02:01:55.400Z,-0.30
2023-03-16T02:02:05.411Z,-0.42
2023-03-16T02:02:15.344Z,-0.34
2023-03-16T02:02:25.411Z,-0.50
2023-03-16T02:02:35.304Z,-0.33
2023-03-16T02:02:45.289Z,-0.48
2023-03-16T02:02:55.296Z,-0.39
2023-03-16T02:03:05.312Z,-0.52
2023-03-16T02:03:15.375Z,-0.51
2023-03-16T02:03:25.292Z,-0.50
2023-03-16T02:03:35.306Z,-0.36
2023-03-16T02:03:45.790Z,-0.39
2023-03-16T02:03:55.444Z,-0.41
2023-03-16T02:04:05.377Z,-0.41
2023-03-16T02:04:15.424Z,-0.57
2023-03-16T02:04:25.337Z,-0.44
2023-03-16T02:04:35.522Z,-0.48
2023-03-16T02:04:45.377Z,-0.48
2023-03-16T02:04:55.320Z,-0.27
2023-03-16T02:05:05.268Z,-0.41
2023-03-16T02:05:15.292Z,-0.44
2023-03-16T02:05:25.301Z,-0.33
2023-03-16T02:05:35.312Z,-0.37
2023-03-16T02:05:45.356Z,-0.51
2023-03-16T02:05:55.276Z,-0.47
2023-03-16T02:06:05.384Z,-0.30
2023-03-16T02:06:15.307Z,-0.42
2023-03-16T02:06:25.304Z,-0.68
2023-03-16T02:06:35.384Z,-0.42
2023-03-16T02:06:45.289Z,-0.37
2023-03-16T02:06:55.408Z,-0.45
2023-03-16T02:07:05.311Z,-0.50
2023-03-16T02:07:15.350Z,-0.36
2023-03-16T02:07:25.311Z,-0.45
2023-03-16T02:07:35.261Z,-0.41
2023-03-16T02:07:45.800Z,-0.50
2023-03-16T02:07:55.822Z,-0.50
2023-03-16T02:08:05.376Z,-0.36
2023-03-16T02:08:15.273Z,-0.37
2023-03-16T02:08:25.296Z,-0.47
2023-03-16T02:08:35.792Z,-0.34
2023-03-16T02:08:45.395Z,-0.33
2023-03-16T02:08:55.366Z,-0.34
2023-03-16T02:09:05.265Z,-0.51
2023-03-16T02:09:15.281Z,-0.26
2023-03-16T02:09:25.444Z,-0.44
2023-03-16T02:09:35.271Z,-0.54
2023-03-16T02:09:45.277Z,-0.29
2023-03-16T02:09:55.293Z,-0.51
2023-03-16T02:10:05.254Z,-0.37
2023-03-16T02:10:15.308Z,-0.37
2023-03-16T02:10:25.346Z,-0.30
2023-03-16T02:10:35.277Z,-0.37
2023-03-16T02:10:45.335Z,-0.41
2023-03-16T02:10:55.265Z,-0.29
2023-03-16T02:11:05.263Z,-0.36
2023-03-16T02:11:15.284Z,-0.29
2023-03-16T02:11:25.244Z,-0.36